createdAt,value
2023-01-18T00:01:19.386Z,6.73
2023-01-18T00:03:46.535Z,5.63
2023-01-18T00:06:13.865Z,6.53
2023-01-18T00:08:42.340Z,6.00
2023-01-18T00:11:15.934Z,7.07
2023-01-18T00:13:43.676Z,6.83
2023-01-18T00:16:19.754Z,7.03
2023-01-18T00:18:58.371Z,7.53
2023-01-18T00:21:27.329Z,6.47
2023-01-18T00:23:56.666Z,7.10
2023-01-18T00:26:23.652Z,7.03
2023-01-18T00:28:50.563Z,6.50
2023-01-18T00:31:20.882Z,7.00
2023-01-18T00:33:50.103Z,6.77
2023-01-18T00:36:18.639Z,7.10
2023-01-18T00:38:52.007Z,6.50
2023-01-18T00:41:20.835Z,6.73
2023-01-18T00:43:47.735Z,6.40
2023-01-18T00:46:22.019Z,6.50
2023-01-18T00:48:49.552Z,6.70
2023-01-18T00:51:26.400Z,7.17
2023-01-18T00:53:53.362Z,5.67
2023-01-18T00:56:22.364Z,6.40
2023-01-18T00:58:49.373Z,5.97
2023-01-18T01:01:16.925Z,6.20
2023-01-18T01:04:02.469Z,6.10
2023-01-18T01:06:44.277Z,6.07
2023-01-18T01:09:17.161Z,5.40
2023-01-18T01:12:04.639Z,6.27
2023-01-18T01:14:52.928Z,6.07
2023-01-18T01:17:38.308Z,5.83
2023-01-18T01:20:25.091Z,6.27
2023-01-18T01:23:10.327Z,6.33
2023-01-18T01:25:56.828Z,6.90
2023-01-18T01:28:23.952Z,6.57
2023-01-18T01:30:50.888Z,6.70
2023-01-18T01:33:19.381Z,7.03
2023-01-18T01:35:46.268Z,7.57
2023-01-18T01:38:13.122Z,8.00
2023-01-18T01:40:40.155Z,7.47
2023-01-18T01:43:13.495Z,7.20
2023-01-18T01:45:40.582Z,7.40
2023-01-18T01:48:09.942Z,7.50
2023-01-18T01:50:40.170Z,7.53
2023-01-18T01:53:09.029Z,7.40
2023-01-18T01:55:39.464Z,7.60
2023-01-18T01:58:17.436Z,6.80
2023-01-18T02:00:45.495Z,7.23
2023-01-18T02:03:18.097Z,6.80
2023-01-18T02:05:49.916Z,6.97
2023-01-18T02:08:22.452Z,6.20
2023-01-18T02:10:50.724Z,6.40
2023-01-18T02:13:20.136Z,6.67
2023-01-18T02:16:19.996Z,5.87
2023-01-18T02:18:59.718Z,5.17
2023-01-18T02:21:44.775Z,5.30
2023-01-18T02:24:26.747Z,5.30
2023-01-18T02:27:03.228Z,5.30
2023-01-18T02:29:35.984Z,4.30
2023-01-18T02:32:46.404Z,4.73
2023-01-18T02:35:51.011Z,4.60
2023-01-18T02:38:45.195Z,4.20
2023-01-18T02:41:56.224Z,4.00
2023-01-18T02:44:49.925Z,3.97
2023-01-18T02:47:17.825Z,4.17
2023-01-18T02:49:44.707Z,3.53
2023-01-18T02:52:53.513Z,4.30
2023-01-18T02:55:55.433Z,3.80
2023-01-18T02:58:34.074Z,3.80
2023-01-18T03:01:31.871Z,3.60
2023-01-18T03:04:12.336Z,3.50
2023-01-18T03:06:43.206Z,3.47
2023-01-18T03:09:10.380Z,3.27
2023-01-18T03:11:49.648Z,3.70
2023-01-18T03:14:39.529Z,3.50
2023-01-18T03:17:26.454Z,3.10
2023-01-18T03:20:07.418Z,3.30
2023-01-18T03:23:03.997Z,3.80
2023-01-18T03:25:39.201Z,3.37
2023-01-18T03:28:29.101Z,3.57
2023-01-18T03:31:19.275Z,3.80
2023-01-18T03:33:53.648Z,4.03
2023-01-18T03:36:36.174Z,4.43
2023-01-18T03:39:09.320Z,4.00
2023-01-18T03:41:48.438Z,4.50
2023-01-18T03:44:37.477Z,4.13
2023-01-18T03:47:06.139Z,4.20
2023-01-18T03:49:34.771Z,4.50
2023-01-18T03:52:30.730Z,4.30
2023-01-18T03:55:11.826Z,3.67
2023-01-18T03:57:58.258Z,4.33
2023-01-18T04:00:25.712Z,4.00
2023-01-18T04:02:53.035Z,3.67
2023-01-18T04:05:20.198Z,4.00
2023-01-18T04:07:47.539Z,4.03
2023-01-18T04:10:15.732Z,3.70
2023-01-18T04:12:42.689Z,3.30
2023-01-18T04:15:10.311Z,4.10
2023-01-18T04:17:37.536Z,4.37
2023-01-18T04:20:05.510Z,3.47
2023-01-18T04:22:32.463Z,3.50
2023-01-18T04:24:59.332Z,3.37
2023-01-18T04:27:26.197Z,3.10
2023-01-18T04:29:53.205Z,2.90
2023-01-18T04:32:20.143Z,3.30
2023-01-18T04:34:47.001Z,3.30
2023-01-18T04:37:13.908Z,2.63
2023-01-18T04:39:40.863Z,2.57
2023-01-18T04:42:07.764Z,3.27
2023-01-18T04:44:34.652Z,3.03
2023-01-18T04:47:01.628Z,2.80
2023-01-18T04:49:28.566Z,2.87
2023-01-18T04:51:55.477Z,2.90
2023-01-18T04:54:22.390Z,2.97
2023-01-18T04:56:49.466Z,2.67
2023-01-18T04:59:17.054Z,2.10
2023-01-18T05:01:44.249Z,2.47
2023-01-18T05:04:11.325Z,2.30
2023-01-18T05:06:38.240Z,2.57
2023-01-18T05:09:05.132Z,2.50
2023-01-18T05:11:32.124Z,2.70
2023-01-18T05:13:59.066Z,2.10
2023-01-18T05:16:26.055Z,2.60
2023-01-18T05:18:53.102Z,2.33
2023-01-18T05:21:20.500Z,2.40
2023-01-18T05:23:47.478Z,2.03
2023-01-18T05:26:22.243Z,2.00
2023-01-18T05:28:50.816Z,2.50
2023-01-18T05:31:21.022Z,2.43
2023-01-18T05:33:48.179Z,2.03
2023-01-18T05:36:15.062Z,2.23
2023-01-18T05:38:42.086Z,2.40
2023-01-18T05:41:09.124Z,2.60
2023-01-18T05:43:36.023Z,3.03
2023-01-18T05:46:04.522Z,2.90
2023-01-18T05:48:31.834Z,2.50
2023-01-18T05:50:58.822Z,2.80
2023-01-18T05:53:25.978Z,3.30
2023-01-18T05:55:59.834Z,3.33
2023-01-18T05:58:27.956Z,3.50
2023-01-18T06:00:55.841Z,3.47
2023-01-18T06:03:23.769Z,3.83
2023-01-18T06:05:53.926Z,3.30
2023-01-18T06:08:21.052Z,3.63
2023-01-18T06:10:56.895Z,3.63
2023-01-18T06:13:24.859Z,4.03
2023-01-18T06:15:54.630Z,3.70
2023-01-18T06:18:22.628Z,3.80
2023-01-18T06:20:49.809Z,4.17
2023-01-18T06:23:16.708Z,2.77
2023-01-18T06:25:43.710Z,3.90
2023-01-18T06:28:10.617Z,3.90
2023-01-18T06:30:37.509Z,3.40
2023-01-18T06:33:06.935Z,3.47
2023-01-18T06:35:34.710Z,3.27
2023-01-18T06:38:03.476Z,3.73
2023-01-18T06:40:31.108Z,3.87
2023-01-18T06:42:58.674Z,3.43
2023-01-18T06:45:26.526Z,3.27
2023-01-18T06:47:53.807Z,4.07
2023-01-18T06:50:21.891Z,3.43
2023-01-18T06:52:49.006Z,3.20
2023-01-18T06:55:16.091Z,3.30
2023-01-18T06:57:43.036Z,3.90
2023-01-18T07:00:11.464Z,4.13
2023-01-18T07:02:38.678Z,3.70
2023-01-18T07:05:06.608Z,4.10
2023-01-18T07:07:33.713Z,4.07
2023-01-18T07:10:00.739Z,4.70
2023-01-18T07:12:27.701Z,4.00
2023-01-18T07:14:54.733Z,4.43
2023-01-18T07:17:21.599Z,4.50
2023-01-18T07:19:48.472Z,3.60
2023-01-18T07:22:15.444Z,4.20
2023-01-18T07:24:42.394Z,3.63
2023-01-18T07:27:09.376Z,4.07
2023-01-18T07:29:36.445Z,4.40
2023-01-18T07:32:03.653Z,5.00
2023-01-18T07:34:30.582Z,5.50
2023-01-18T07:36:57.563Z,5.10
2023-01-18T07:39:24.584Z,4.67
2023-01-18T07:41:51.484Z,4.70
2023-01-18T07:44:18.739Z,4.43
2023-01-18T07:46:45.807Z,6.07
2023-01-18T07:49:12.686Z,4.90
2023-01-18T07:51:39.683Z,5.17
2023-01-18T07:54:07.238Z,4.67
2023-01-18T07:56:34.227Z,5.10
2023-01-18T07:59:01.183Z,5.10
2023-01-18T08:01:28.852Z,4.80
2023-01-18T08:03:55.846Z,4.97
2023-01-18T08:06:25.273Z,4.80
2023-01-18T08:08:54.549Z,4.43
2023-01-18T08:11:21.516Z,5.00
2023-01-18T08:13:50.565Z,4.60
2023-01-18T08:16:18.300Z,4.00
2023-01-18T08:18:45.826Z,3.07
2023-01-18T08:21:14.088Z,4.03
2023-01-18T08:23:41.640Z,4.23
2023-01-18T08:26:10.714Z,3.90
2023-01-18T08:28:37.697Z,4.10
2023-01-18T08:31:15.807Z,3.43
2023-01-18T08:33:47.562Z,4.10
2023-01-18T08:36:21.409Z,3.40
2023-01-18T08:38:55.384Z,3.73
2023-01-18T08:41:28.101Z,3.67
2023-01-18T08:43:59.789Z,3.17
2023-01-18T08:46:27.003Z,3.30
2023-01-18T08:48:56.905Z,3.97
2023-01-18T08:51:25.947Z,3.90
2023-01-18T08:53:54.428Z,3.30
2023-01-18T08:56:21.699Z,3.03
2023-01-18T08:58:48.888Z,3.70
2023-01-18T09:01:16.039Z,3.50
2023-01-18T09:03:43.142Z,3.00
2023-01-18T09:06:12.859Z,3.07
2023-01-18T09:08:40.162Z,3.60
2023-01-18T09:11:10.568Z,2.90
2023-01-18T09:13:58.531Z,3.60
2023-01-18T09:16:26.494Z,2.73
2023-01-18T09:18:55.344Z,3.53
2023-01-18T09:21:22.474Z,3.00
2023-01-18T09:23:50.782Z,3.07
2023-01-18T09:26:20.612Z,2.50
2023-01-18T09:28:53.857Z,2.60
2023-01-18T09:31:23.976Z,2.87
2023-01-18T09:33:54.045Z,2.87
2023-01-18T09:36:26.569Z,2.77
2023-01-18T09:38:57.488Z,3.10
2023-01-18T09:41:40.230Z,2.60
2023-01-18T09:44:17.966Z,2.90
2023-01-18T09:46:54.221Z,2.30
2023-01-18T09:49:39.477Z,3.20
2023-01-18T09:52:30.545Z,2.87
2023-01-18T09:55:09.248Z,3.20
2023-01-18T09:57:48.281Z,2.50
2023-01-18T10:00:40.438Z,2.80
2023-01-18T10:03:20.141Z,2.60
2023-01-18T10:06:09.626Z,2.50
2023-01-18T10:09:01.037Z,2.73
2023-01-18T10:11:55.104Z,2.60
2023-01-18T10:14:53.460Z,1.90
2023-01-18T10:17:25.993Z,2.00
2023-01-18T10:19:52.963Z,1.93
2023-01-18T10:22:29.253Z,1.60
2023-01-18T10:25:17.343Z,1.70
2023-01-18T10:27:50.497Z,1.73
2023-01-18T10:30:28.116Z,2.00
2023-01-18T10:33:03.038Z,1.67
2023-01-18T10:35:48.494Z,1.57
2023-01-18T10:38:22.491Z,1.93
2023-01-18T10:40:57.577Z,1.90
2023-01-18T10:43:26.709Z,1.60
2023-01-18T10:45:54.872Z,1.60
2023-01-18T10:48:33.136Z,1.67
2023-01-18T10:51:03.790Z,1.40
2023-01-18T10:53:39.385Z,1.60
2023-01-18T10:56:18.096Z,1.40
2023-01-18T10:58:51.116Z,1.30
2023-01-18T11:01:21.503Z,1.13
2023-01-18T11:04:06.732Z,1.73
2023-01-18T11:06:51.388Z,1.20
2023-01-18T11:09:51.628Z,2.10
2023-01-18T11:12:34.483Z,1.63
2023-01-18T11:15:13.770Z,1.17
2023-01-18T11:17:50.327Z,1.40
2023-01-18T11:20:24.916Z,1.37
2023-01-18T11:23:18.466Z,1.57
2023-01-18T11:26:09.170Z,1.20
2023-01-18T11:28:56.061Z,1.27
2023-01-18T11:31:25.686Z,1.50
2023-01-18T11:34:00.134Z,1.13
2023-01-18T11:36:54.144Z,1.63
2023-01-18T11:39:35.902Z,1.30
2023-01-18T11:42:11.884Z,1.30
2023-01-18T11:45:00.175Z,1.57
2023-01-18T11:47:51.506Z,1.20
2023-01-18T11:50:43.409Z,1.43
2023-01-18T11:53:47.340Z,1.37
2023-01-18T11:56:24.667Z,1.33
2023-01-18T11:58:51.687Z,1.20
2023-01-18T12:01:30.352Z,1.40
2023-01-18T12:04:14.416Z,1.47
2023-01-18T12:06:44.273Z,1.37
2023-01-18T12:09:32.410Z,1.73
2023-01-18T12:12:40.029Z,1.00
2023-01-18T12:16:04.557Z,1.27
2023-01-18T12:18:50.673Z,1.20
2023-01-18T12:21:40.746Z,1.13
2023-01-18T12:24:21.032Z,1.13
2023-01-18T12:27:10.141Z,1.20
2023-01-18T12:30:22.391Z,1.20
2023-01-18T12:33:42.263Z,1.50
2023-01-18T12:36:37.858Z,1.70
2023-01-18T12:39:38.799Z,1.40
2023-01-18T12:42:14.576Z,1.40
2023-01-18T12:45:18.096Z,1.70
2023-01-18T12:48:05.512Z,2.33
2023-01-18T12:50:38.920Z,1.30
2023-01-18T12:53:15.106Z,1.67
2023-01-18T12:55:49.161Z,1.60
2023-01-18T12:58:22.972Z,1.57
2023-01-18T13:01:04.341Z,1.63
2023-01-18T13:03:56.700Z,1.30
2023-01-18T13:06:25.450Z,1.50
2023-01-18T13:09:03.075Z,1.33
2023-01-18T13:11:38.027Z,1.70
2023-01-18T13:14:10.709Z,1.70
2023-01-18T13:17:11.491Z,1.40
2023-01-18T13:20:00.449Z,1.87
2023-01-18T13:23:08.264Z,1.20
2023-01-18T13:26:02.453Z,1.40
2023-01-18T13:28:29.661Z,1.70
2023-01-18T13:31:01.912Z,2.00
2023-01-18T13:33:40.739Z,1.73
2023-01-18T13:36:11.921Z,1.50
2023-01-18T13:39:03.622Z,1.70
2023-01-18T13:41:31.071Z,1.90
2023-01-18T13:44:02.748Z,2.00
2023-01-18T13:46:36.637Z,1.90
2023-01-18T13:49:36.789Z,1.73
2023-01-18T13:52:35.382Z,1.97
2023-01-18T13:55:24.044Z,1.97
2023-01-18T13:57:58.235Z,1.93
2023-01-18T14:00:26.471Z,1.53
2023-01-18T14:03:03.022Z,1.90
2023-01-18T14:05:38.844Z,2.13
2023-01-18T14:08:06.453Z,1.93
2023-01-18T14:10:39.112Z,1.80
2023-01-18T14:13:10.967Z,2.07
2023-01-18T14:15:51.839Z,2.00
2023-01-18T14:18:30.887Z,1.77
2023-01-18T14:21:23.690Z,1.77
2023-01-18T14:24:35.181Z,1.80
2023-01-18T14:27:04.781Z,1.90
2023-01-18T14:29:54.942Z,1.70
2023-01-18T14:32:33.227Z,1.57
2023-01-18T14:35:04.361Z,1.90
2023-01-18T14:37:34.354Z,1.63
2023-01-18T14:40:06.984Z,2.03
2023-01-18T14:42:35.362Z,1.87
2023-01-18T14:45:05.266Z,1.80
2023-01-18T14:47:34.161Z,1.73
2023-01-18T14:50:14.324Z,2.17
2023-01-18T14:52:43.413Z,2.13
2023-01-18T14:55:32.502Z,2.10
2023-01-18T14:58:17.714Z,1.33
2023-01-18T15:00:53.659Z,1.73
2023-01-18T15:03:28.744Z,1.70
2023-01-18T15:06:43.642Z,1.83
2023-01-18T15:09:12.599Z,2.00
2023-01-18T15:11:42.204Z,1.80
2023-01-18T15:14:37.297Z,3.00
2023-01-18T15:17:12.096Z,2.90
2023-01-18T15:19:46.967Z,1.70
2023-01-18T15:22:16.512Z,2.00
2023-01-18T15:24:45.516Z,2.30
2023-01-18T15:27:19.710Z,1.70
2023-01-18T15:29:59.094Z,2.00
2023-01-18T15:32:32.918Z,1.77
2023-01-18T15:35:01.547Z,2.87
2023-01-18T15:37:40.273Z,2.40
2023-01-18T15:40:07.502Z,2.00
2023-01-18T15:42:44.431Z,1.90
2023-01-18T15:45:33.340Z,2.50
2023-01-18T15:48:22.694Z,2.40
2023-01-18T15:50:52.186Z,1.83
2023-01-18T15:53:43.405Z,2.43
2023-01-18T15:56:27.295Z,2.27
2023-01-18T15:58:57.296Z,2.07
2023-01-18T16:01:31.824Z,4.20
2023-01-18T16:04:20.095Z,8.50
2023-01-18T16:06:47.050Z,14.50
2023-01-18T16:09:15.841Z,9.83
2023-01-18T16:12:01.085Z,8.23
2023-01-18T16:14:36.389Z,8.33
2023-01-18T16:17:14.394Z,6.57
2023-01-18T16:19:48.264Z,6.10
2023-01-18T16:22:52.422Z,4.20
2023-01-18T16:25:23.438Z,2.90
2023-01-18T16:27:55.486Z,7.37
2023-01-18T16:30:37.934Z,5.47
2023-01-18T16:33:18.542Z,6.17
2023-01-18T16:35:46.812Z,5.80
2023-01-18T16:38:17.480Z,8.53
2023-01-18T16:40:48.777Z,6.67
2023-01-18T16:43:18.524Z,7.80
2023-01-18T16:45:47.984Z,8.13
2023-01-18T16:48:18.412Z,8.70
2023-01-18T16:50:46.379Z,7.93
2023-01-18T16:53:13.713Z,8.67
2023-01-18T16:55:43.943Z,7.07
2023-01-18T16:58:13.136Z,4.67
2023-01-18T17:01:05.938Z,4.30
2023-01-18T17:03:34.455Z,4.17
2023-01-18T17:06:01.693Z,4.97
2023-01-18T17:08:28.604Z,5.33
2023-01-18T17:10:55.749Z,5.73
2023-01-18T17:13:23.782Z,5.13
2023-01-18T17:15:52.411Z,6.97
2023-01-18T17:18:25.391Z,6.17
2023-01-18T17:20:53.171Z,8.00
2023-01-18T17:23:20.324Z,8.63
2023-01-18T17:25:47.402Z,9.97
2023-01-18T17:28:17.868Z,10.10
2023-01-18T17:30:47.700Z,10.30
2023-01-18T17:33:24.276Z,9.80
2023-01-18T17:35:53.851Z,10.13
2023-01-18T17:38:27.254Z,9.30
2023-01-18T17:40:56.050Z,7.17
2023-01-18T17:43:33.264Z,6.50
2023-01-18T17:46:06.318Z,5.67
2023-01-18T17:48:33.852Z,5.03
2023-01-18T17:51:00.952Z,6.33
2023-01-18T17:53:28.060Z,4.00
2023-01-18T17:55:55.306Z,5.10
2023-01-18T17:58:22.260Z,5.40
2023-01-18T18:00:49.280Z,6.60
2023-01-18T18:03:16.497Z,5.90
2023-01-18T18:05:43.727Z,6.10
2023-01-18T18:08:10.594Z,5.87
2023-01-18T18:10:37.463Z,6.60
2023-01-18T18:13:04.490Z,9.33
2023-01-18T18:15:31.687Z,9.23
2023-01-18T18:17:58.638Z,10.30
2023-01-18T18:20:25.530Z,9.70
2023-01-18T18:22:52.503Z,10.63
2023-01-18T18:25:19.481Z,12.07
2023-01-18T18:27:47.405Z,10.63
2023-01-18T18:30:16.719Z,9.60
2023-01-18T18:32:43.745Z,8.57
2023-01-18T18:35:26.668Z,7.53
2023-01-18T18:37:55.602Z,6.97
2023-01-18T18:40:23.203Z,6.13
2023-01-18T18:43:01.248Z,6.20
2023-01-18T18:45:33.344Z,6.33
2023-01-18T18:48:00.900Z,5.60
2023-01-18T18:50:28.795Z,4.20
2023-01-18T18:52:56.409Z,4.73
2023-01-18T18:55:23.626Z,4.43
2023-01-18T18:57:50.733Z,4.00
2023-01-18T19:00:18.555Z,4.47
2023-01-18T19:02:46.621Z,4.80
2023-01-18T19:05:13.571Z,4.93
2023-01-18T19:07:42.379Z,4.30
2023-01-18T19:10:11.553Z,3.77
2023-01-18T19:12:38.439Z,3.87
2023-01-18T19:15:05.939Z,3.70
2023-01-18T19:17:32.900Z,4.50
2023-01-18T19:19:59.923Z,5.07
2023-01-18T19:22:27.993Z,4.10
2023-01-18T19:24:54.929Z,5.60
2023-01-18T19:27:24.456Z,4.40
2023-01-18T19:29:53.087Z,4.60
2023-01-18T19:32:20.302Z,5.33
2023-01-18T19:34:47.248Z,5.90
2023-01-18T19:37:14.129Z,5.40
2023-01-18T19:39:41.020Z,5.30
2023-01-18T19:42:08.895Z,5.50
2023-01-18T19:44:35.812Z,6.90
2023-01-18T19:47:03.399Z,6.53
2023-01-18T19:49:30.548Z,5.67
2023-01-18T19:51:57.519Z,5.80
2023-01-18T19:54:24.643Z,5.47
2023-01-18T19:56:51.576Z,6.20
2023-01-18T19:59:18.535Z,6.00
2023-01-18T20:01:45.672Z,6.37
2023-01-18T20:04:13.414Z,6.00
2023-01-18T20:06:43.231Z,6.33
2023-01-18T20:09:19.364Z,6.50
2023-01-18T20:11:48.421Z,6.13
2023-01-18T20:14:15.402Z,6.13
2023-01-18T20:16:44.800Z,6.97
2023-01-18T20:19:14.393Z,7.23
2023-01-18T20:21:41.508Z,6.53
2023-01-18T20:24:09.303Z,6.50
2023-01-18T20:26:40.011Z,7.20
2023-01-18T20:29:08.593Z,7.37
2023-01-18T20:31:37.741Z,7.07
2023-01-18T20:34:05.745Z,6.03
2023-01-18T20:36:34.965Z,8.00
2023-01-18T20:39:03.743Z,7.23
2023-01-18T20:41:30.743Z,9.90
2023-01-18T20:43:57.679Z,7.87
2023-01-18T20:46:24.588Z,7.90
2023-01-18T20:48:51.570Z,6.77
2023-01-18T20:51:18.577Z,6.07
2023-01-18T20:53:45.502Z,6.03
2023-01-18T20:56:27.779Z,6.00
2023-01-18T20:58:56.450Z,6.40
2023-01-18T21:01:23.432Z,5.63
2023-01-18T21:03:56.147Z,6.00
2023-01-18T21:06:23.178Z,6.20
2023-01-18T21:08:55.461Z,6.13
2023-01-18T21:11:23.174Z,6.00
2023-01-18T21:13:52.697Z,6.00
2023-01-18T21:16:20.054Z,5.70
2023-01-18T21:18:47.061Z,6.33
2023-01-18T21:21:13.929Z,6.60
2023-01-18T21:23:41.725Z,6.77
2023-01-18T21:26:11.748Z,7.10
2023-01-18T21:28:39.299Z,8.27
2023-01-18T21:31:07.083Z,7.77
2023-01-18T21:33:34.168Z,11.07
2023-01-18T21:36:14.282Z,8.97
2023-01-18T21:38:41.615Z,8.80
2023-01-18T21:41:28.045Z,9.43
2023-01-18T21:44:13.343Z,8.43
2023-01-18T21:46:51.861Z,8.27
2023-01-18T21:52:46.729Z,8.03
2023-01-18T21:55:15.283Z,8.37
2023-01-18T21:57:42.184Z,8.23
2023-01-18T22:00:10.431Z,8.00
2023-01-18T22:02:38.426Z,7.70
2023-01-18T22:05:08.443Z,8.00
2023-01-18T22:07:35.510Z,8.27
2023-01-18T22:10:06.105Z,7.80
2023-01-18T22:12:35.909Z,8.27
2023-01-18T22:15:04.821Z,8.67
2023-01-18T22:17:32.099Z,9.87
2023-01-18T22:19:59.769Z,10.80
2023-01-18T22:22:26.704Z,10.00
2023-01-18T22:24:53.654Z,8.63
2023-01-18T22:27:20.561Z,9.53
2023-01-18T22:29:47.450Z,10.60
2023-01-18T22:32:14.349Z,9.30
2023-01-18T22:34:41.262Z,9.63
2023-01-18T22:37:08.326Z,9.80
2023-01-18T22:39:35.308Z,9.73
2023-01-18T22:42:02.174Z,9.93
2023-01-18T22:44:29.104Z,10.10
2023-01-18T22:46:56.090Z,10.20
2023-01-18T22:49:23.124Z,9.53
2023-01-18T22:51:50.126Z,9.77
2023-01-18T22:54:19.314Z,10.53
2023-01-18T22:56:46.195Z,10.80
2023-01-18T22:59:13.696Z,10.43
2023-01-18T23:01:40.622Z,11.73
2023-01-18T23:04:07.584Z,11.70
2023-01-18T23:06:46.577Z,11.40
2023-01-18T23:09:15.871Z,9.70
2023-01-18T23:11:43.337Z,9.57
2023-01-18T23:14:28.728Z,10.33
2023-01-18T23:17:14.191Z,10.10
2023-01-18T23:19:41.092Z,10.13
2023-01-18T23:22:08.032Z,11.27
2023-01-18T23:24:37.402Z,9.60
2023-01-18T23:27:07.388Z,8.90
2023-01-18T23:29:34.534Z,8.97
2023-01-18T23:32:01.784Z,9.30
2023-01-18T23:34:28.769Z,8.80
2023-01-18T23:36:55.690Z,9.30
2023-01-18T23:39:41.613Z,9.20
2023-01-18T23:42:27.546Z,9.07
2023-01-18T23:45:13.085Z,9.60
2023-01-18T23:47:58.870Z,8.60
2023-01-18T23:50:44.251Z,9.80
2023-01-18T23:53:33.326Z,9.47
2023-01-18T23:56:00.657Z,10.33
2023-01-18T23:58:27.872Z,10.37
